sensor_id;sensor_type;location;lat;lon;timestamp;pressure;altitude;pressure_sealevel;temperature;humidity
6194;BME280;3130;41.564;23.280;2023-02-18T00:02:21;99815.75;;;5.11;69.53
6194;BME280;3130;41.564;23.280;2023-02-18T00:04:48;99716.41;;;4.50;69.77
6194;BME280;3130;41.564;23.280;2023-02-18T00:07:16;99819.03;;;5.16;69.68
6194;BME280;3130;41.564;23.280;2023-02-18T00:09:44;99805.69;;;5.06;69.02
6194;BME280;3130;41.564;23.280;2023-02-18T00:12:11;99838.25;;;5.26;69.35
6194;BME280;3130;41.564;23.280;2023-02-18T00:14:38;99746.88;;;4.87;69.40
6194;BME280;3130;41.564;23.280;2023-02-18T00:17:05;99813.50;;;5.34;69.04
6194;BME280;3130;41.564;23.280;2023-02-18T00:19:32;99727.34;;;4.89;67.88
6194;BME280;3130;41.564;23.280;2023-02-18T00:21:59;99714.72;;;4.86;68.17
6194;BME280;3130;41.564;23.280;2023-02-18T00:24:27;99741.81;;;4.85;68.78
6194;BME280;3130;41.564;23.280;2023-02-18T00:26:55;99811.13;;;4.92;71.15
6194;BME280;3130;41.564;23.280;2023-02-18T00:29:22;99824.09;;;4.80;72.61
6194;BME280;3130;41.564;23.280;2023-02-18T00:31:49;99731.59;;;4.15;72.72
6194;BME280;3130;41.564;23.280;2023-02-18T00:34:16;99725.66;;;4.16;72.72
6194;BME280;3130;41.564;23.280;2023-02-18T00:36:43;99818.44;;;4.69;72.83
6194;BME280;3130;41.564;23.280;2023-02-18T00:39:10;99627.94;;;3.61;72.33
6194;BME280;3130;41.564;23.280;2023-02-18T00:41:40;99744.84;;;4.29;73.00
6194;BME280;3130;41.564;23.280;2023-02-18T00:44:08;99747.50;;;4.23;72.88
6194;BME280;3130;41.564;23.280;2023-02-18T00:46:35;99725.75;;;4.12;72.68
6194;BME280;3130;41.564;23.280;2023-02-18T00:49:03;99703.34;;;3.91;72.99
6194;BME280;3130;41.564;23.280;2023-02-18T00:51:30;99616.44;;;3.44;72.98
6194;BME280;3130;41.564;23.280;2023-02-18T00:53:57;99797.75;;;4.47;72.55
6194;BME280;3130;41.564;23.280;2023-02-18T00:56:25;99813.75;;;4.51;72.57
6194;BME280;3130;41.564;23.280;2023-02-18T00:58:53;99806.31;;;4.42;72.83
6194;BME280;3130;41.564;23.280;2023-02-18T01:01:20;99810.47;;;4.46;73.42
6194;BME280;3130;41.564;23.280;2023-02-18T01:03:49;99810.72;;;4.34;73.71
6194;BME280;3130;41.564;23.280;2023-02-18T01:06:16;99762.41;;;3.99;74.19
6194;BME280;3130;41.564;23.280;2023-02-18T01:08:43;99605.41;;;3.05;73.96
6194;BME280;3130;41.564;23.280;2023-02-18T01:11:11;99607.06;;;3.06;74.02
6194;BME280;3130;41.564;23.280;2023-02-18T01:13:39;99636.22;;;3.27;74.07
6194;BME280;3130;41.564;23.280;2023-02-18T01:16:08;99798.25;;;4.23;75.07
6194;BME280;3130;41.564;23.280;2023-02-18T01:18:35;99614.63;;;3.09;74.68
6194;BME280;3130;41.564;23.280;2023-02-18T01:21:03;99739.78;;;3.87;74.93
6194;BME280;3130;41.564;23.280;2023-02-18T01:23:33;99779.03;;;4.12;75.05
6194;BME280;3130;41.564;23.280;2023-02-18T01:26:00;99703.09;;;3.64;74.57
6194;BME280;3130;41.564;23.280;2023-02-18T01:28:27;99742.53;;;3.78;74.41
6194;BME280;3130;41.564;23.280;2023-02-18T01:30:54;99658.97;;;3.30;75.29
6194;BME280;3130;41.564;23.280;2023-02-18T01:33:22;99664.03;;;3.31;75.41
6194;BME280;3130;41.564;23.280;2023-02-18T01:35:51;99778.50;;;3.98;76.20
6194;BME280;3130;41.564;23.280;2023-02-18T01:38:18;99596.38;;;2.91;75.68
6194;BME280;3130;41.564;23.280;2023-02-18T01:40:47;99768.88;;;4.12;75.34
6194;BME280;3130;41.564;23.280;2023-02-18T01:43:16;99733.84;;;3.88;74.62
6194;BME280;3130;41.564;23.280;2023-02-18T01:45:51;99756.78;;;3.84;75.73
6194;BME280;3130;41.564;23.280;2023-02-18T01:48:27;99688.56;;;3.28;76.36
6194;BME280;3130;41.564;23.280;2023-02-18T01:50:59;99742.94;;;3.59;76.82
6194;BME280;3130;41.564;23.280;2023-02-18T01:53:31;99561.69;;;2.51;77.07
6194;BME280;3130;41.564;23.280;2023-02-18T01:56:02;99747.34;;;3.48;76.95
6194;BME280;3130;41.564;23.280;2023-02-18T01:58:31;99741.59;;;3.40;77.22
6194;BME280;3130;41.564;23.280;2023-02-18T02:00:59;99757.44;;;3.51;76.57
6194;BME280;3130;41.564;23.280;2023-02-18T02:03:27;99585.09;;;2.63;76.17
6194;BME280;3130;41.564;23.280;2023-02-18T02:05:54;99747.72;;;3.72;75.71
6194;BME280;3130;41.564;23.280;2023-02-18T02:08:21;99754.38;;;3.78;74.95
6194;BME280;3130;41.564;23.280;2023-02-18T02:11:04;99657.78;;;3.05;75.77
6194;BME280;3130;41.564;23.280;2023-02-18T02:13:44;99720.66;;;3.30;76.43
6194;BME280;3130;41.564;23.280;2023-02-18T02:16:21;99730.06;;;3.24;77.32
6194;BME280;3130;41.564;23.280;2023-02-18T02:19:01;99733.66;;;3.12;77.45
6194;BME280;3130;41.564;23.280;2023-02-18T02:25:01;99745.38;;;3.18;78.17
6194;BME280;3130;41.564;23.280;2023-02-18T02:27:45;99746.28;;;3.14;78.62
6194;BME280;3130;41.564;23.280;2023-02-18T02:30:54;99752.16;;;3.16;78.48
6194;BME280;3130;41.564;23.280;2023-02-18T02:33:47;99750.53;;;3.12;78.18
6194;BME280;3130;41.564;23.280;2023-02-18T02:36:21;99746.13;;;3.21;77.88
6194;BME280;3130;41.564;23.280;2023-02-18T02:38:55;99744.31;;;3.28;77.63
6194;BME280;3130;41.564;23.280;2023-02-18T02:41:36;99745.19;;;3.27;77.46
6194;BME280;3130;41.564;23.280;2023-02-18T02:44:14;99559.78;;;2.16;77.33
6194;BME280;3130;41.564;23.280;2023-02-18T02:46:51;99604.22;;;2.31;76.85
6194;BME280;3130;41.564;23.280;2023-02-18T02:49:29;99753.63;;;3.27;76.80
6194;BME280;3130;41.564;23.280;2023-02-18T02:52:04;99743.50;;;3.27;76.80
6194;BME280;3130;41.564;23.280;2023-02-18T02:54:33;99574.88;;;2.21;76.56
6194;BME280;3130;41.564;23.280;2023-02-18T02:57:06;99695.22;;;2.88;76.63
6194;BME280;3130;41.564;23.280;2023-02-18T02:59:35;99596.75;;;2.23;76.92
6194;BME280;3130;41.564;23.280;2023-02-18T03:02:17;99737.03;;;3.10;76.89
6194;BME280;3130;41.564;23.280;2023-02-18T03:05:02;99715.41;;;2.91;76.46
6194;BME280;3130;41.564;23.280;2023-02-18T03:07:49;99640.16;;;2.51;77.25
6194;BME280;3130;41.564;23.280;2023-02-18T03:10:29;99765.41;;;3.30;76.94
6194;BME280;3130;41.564;23.280;2023-02-18T03:13:06;99598.41;;;2.26;77.02
6194;BME280;3130;41.564;23.280;2023-02-18T03:15:40;99592.59;;;2.21;76.70
6194;BME280;3130;41.564;23.280;2023-02-18T03:18:15;99781.34;;;3.38;76.51
6194;BME280;3130;41.564;23.280;2023-02-18T03:20:49;99781.16;;;3.47;76.58
6194;BME280;3130;41.564;23.280;2023-02-18T03:23:22;99656.44;;;2.85;76.67
6194;BME280;3130;41.564;23.280;2023-02-18T03:25:52;99749.94;;;3.45;76.35
6194;BME280;3130;41.564;23.280;2023-02-18T03:28:22;99653.28;;;2.74;76.15
6194;BME280;3130;41.564;23.280;2023-02-18T03:30:52;99769.28;;;3.50;76.48
6194;BME280;3130;41.564;23.280;2023-02-18T03:33:26;99655.38;;;2.97;75.88
6194;BME280;3130;41.564;23.280;2023-02-18T03:35:55;99760.44;;;3.69;75.86
6194;BME280;3130;41.564;23.280;2023-02-18T03:38:28;99771.34;;;3.74;75.38
6194;BME280;3130;41.564;23.280;2023-02-18T03:40:57;99569.16;;;2.60;75.34
6194;BME280;3130;41.564;23.280;2023-02-18T03:43:25;99711.75;;;3.52;75.48
6194;BME280;3130;41.564;23.280;2023-02-18T03:45:52;99587.59;;;2.66;75.81
6194;BME280;3130;41.564;23.280;2023-02-18T03:48:20;99614.19;;;2.88;75.20
6194;BME280;3130;41.564;23.280;2023-02-18T03:50:47;99767.88;;;3.78;75.67
6194;BME280;3130;41.564;23.280;2023-02-18T03:53:14;99763.72;;;3.76;75.38
6194;BME280;3130;41.564;23.280;2023-02-18T03:55:43;99769.72;;;3.70;75.21
6194;BME280;3130;41.564;23.280;2023-02-18T03:58:11;99582.66;;;2.59;75.58
6194;BME280;3130;41.564;23.280;2023-02-18T04:00:39;99775.75;;;3.65;76.12
6194;BME280;3130;41.564;23.280;2023-02-18T04:03:06;99753.13;;;3.54;75.75
6194;BME280;3130;41.564;23.280;2023-02-18T04:05:33;99607.97;;;2.57;76.45
6194;BME280;3130;41.564;23.280;2023-02-18T04:08:00;99615.13;;;2.34;76.81
6194;BME280;3130;41.564;23.280;2023-02-18T04:10:27;99771.53;;;3.18;77.24
6194;BME280;3130;41.564;23.280;2023-02-18T04:12:56;99786.25;;;2.97;78.11
6194;BME280;3130;41.564;23.280;2023-02-18T04:15:23;99751.97;;;2.75;78.44
6194;BME280;3130;41.564;23.280;2023-02-18T04:17:50;99781.47;;;2.79;78.60
6194;BME280;3130;41.564;23.280;2023-02-18T04:20:17;99603.59;;;1.63;79.24
6194;BME280;3130;41.564;23.280;2023-02-18T04:22:44;99624.63;;;1.63;79.71
6194;BME280;3130;41.564;23.280;2023-02-18T04:25:11;99783.56;;;2.52;80.00
6194;BME280;3130;41.564;23.280;2023-02-18T04:27:39;99629.91;;;1.47;80.54
6194;BME280;3130;41.564;23.280;2023-02-18T04:30:08;99652.41;;;1.63;80.74
6194;BME280;3130;41.564;23.280;2023-02-18T04:32:35;99597.47;;;1.14;81.79
6194;BME280;3130;41.564;23.280;2023-02-18T04:35:03;99774.06;;;2.07;82.91
6194;BME280;3130;41.564;23.280;2023-02-18T04:37:30;99641.84;;;1.33;82.54
6194;BME280;3130;41.564;23.280;2023-02-18T04:39:57;99638.63;;;1.22;82.64
6194;BME280;3130;41.564;23.280;2023-02-18T04:42:24;99764.06;;;1.95;82.39
6194;BME280;3130;41.564;23.280;2023-02-18T04:44:52;99777.44;;;2.04;82.46
6194;BME280;3130;41.564;23.280;2023-02-18T04:47:20;99773.94;;;2.17;82.70
6194;BME280;3130;41.564;23.280;2023-02-18T04:49:47;99777.06;;;2.34;82.90
6194;BME280;3130;41.564;23.280;2023-02-18T04:52:14;99658.69;;;1.32;82.30
6194;BME280;3130;41.564;23.280;2023-02-18T04:54:41;99795.94;;;2.09;83.49
6194;BME280;3130;41.564;23.280;2023-02-18T04:57:08;99791.91;;;1.94;83.36
6194;BME280;3130;41.564;23.280;2023-02-18T04:59:35;99666.50;;;1.11;83.80
6194;BME280;3130;41.564;23.280;2023-02-18T05:02:03;99798.56;;;2.02;83.63
6194;BME280;3130;41.564;23.280;2023-02-18T05:04:32;99648.78;;;1.16;83.77
6194;BME280;3130;41.564;23.280;2023-02-18T05:06:59;99643.00;;;1.08;83.94
6194;BME280;3130;41.564;23.280;2023-02-18T05:09:26;99808.72;;;1.99;83.50
6194;BME280;3130;41.564;23.280;2023-02-18T05:11:53;99782.78;;;1.84;84.07
6194;BME280;3130;41.564;23.280;2023-02-18T05:14:20;99802.84;;;1.94;84.45
6194;BME280;3130;41.564;23.280;2023-02-18T05:16:47;99761.09;;;1.65;84.01
6194;BME280;3130;41.564;23.280;2023-02-18T05:19:15;99780.34;;;1.75;84.08
6194;BME280;3130;41.564;23.280;2023-02-18T05:21:44;99797.97;;;1.81;84.74
6194;BME280;3130;41.564;23.280;2023-02-18T05:24:11;99823.16;;;1.87;84.43
6194;BME280;3130;41.564;23.280;2023-02-18T05:26:38;99730.44;;;1.15;85.59
6194;BME280;3130;41.564;23.280;2023-02-18T05:29:05;99793.31;;;1.45;85.67
6194;BME280;3130;41.564;23.280;2023-02-18T05:31:32;99809.22;;;1.50;85.59
6194;BME280;3130;41.564;23.280;2023-02-18T05:33:59;99836.88;;;1.66;86.11
6194;BME280;3130;41.564;23.280;2023-02-18T05:36:26;99838.44;;;1.76;86.01
6194;BME280;3130;41.564;23.280;2023-02-18T05:38:55;99801.59;;;1.56;85.79
6194;BME280;3130;41.564;23.280;2023-02-18T05:41:22;99842.56;;;1.86;86.17
6194;BME280;3130;41.564;23.280;2023-02-18T05:43:49;99828.19;;;1.90;85.70
6194;BME280;3130;41.564;23.280;2023-02-18T05:46:33;99795.34;;;1.87;85.84
6194;BME280;3130;41.564;23.280;2023-02-18T05:49:00;99829.56;;;2.17;85.48
6194;BME280;3130;41.564;23.280;2023-02-18T05:51:27;99819.53;;;2.11;84.09
6194;BME280;3130;41.564;23.280;2023-02-18T05:53:56;99794.50;;;1.89;84.59
6194;BME280;3130;41.564;23.280;2023-02-18T05:56:23;99837.97;;;2.21;84.93
6194;BME280;3130;41.564;23.280;2023-02-18T05:58:50;99834.41;;;2.35;84.54
6194;BME280;3130;41.564;23.280;2023-02-18T06:01:17;99843.59;;;2.42;84.54
6194;BME280;3130;41.564;23.280;2023-02-18T06:03:44;99799.94;;;2.25;84.22
6194;BME280;3130;41.564;23.280;2023-02-18T06:06:11;99795.50;;;2.42;83.22
6194;BME280;3130;41.564;23.280;2023-02-18T06:08:38;99712.75;;;1.89;82.84
6194;BME280;3130;41.564;23.280;2023-02-18T06:11:06;99859.69;;;2.97;82.85
6194;BME280;3130;41.564;23.280;2023-02-18T06:13:33;99849.25;;;3.18;81.60
6194;BME280;3130;41.564;23.280;2023-02-18T06:16:00;99830.44;;;3.31;80.95
6194;BME280;3130;41.564;23.280;2023-02-18T06:18:28;99822.69;;;3.40;80.05
6194;BME280;3130;41.564;23.280;2023-02-18T06:20:55;99800.56;;;3.48;78.67
6194;BME280;3130;41.564;23.280;2023-02-18T06:23:22;99779.28;;;3.56;78.46
6194;BME280;3130;41.564;23.280;2023-02-18T06:25:49;99829.44;;;3.88;77.18
6194;BME280;3130;41.564;23.280;2023-02-18T06:28:18;99803.63;;;3.66;76.97
6194;BME280;3130;41.564;23.280;2023-02-18T06:30:46;99858.97;;;3.90;77.33
6194;BME280;3130;41.564;23.280;2023-02-18T06:33:13;99871.34;;;4.06;76.45
6194;BME280;3130;41.564;23.280;2023-02-18T06:35:40;99816.66;;;3.92;76.15
6194;BME280;3130;41.564;23.280;2023-02-18T06:38:07;99844.75;;;4.25;75.69
6194;BME280;3130;41.564;23.280;2023-02-18T06:40:34;99854.38;;;4.51;75.03
6194;BME280;3130;41.564;23.280;2023-02-18T06:43:01;99837.03;;;4.71;74.95
6194;BME280;3130;41.564;23.280;2023-02-18T06:45:30;99855.97;;;4.93;73.81
6194;BME280;3130;41.564;23.280;2023-02-18T06:47:57;99869.25;;;5.05;73.36
6194;BME280;3130;41.564;23.280;2023-02-18T06:50:24;99849.03;;;5.00;72.53
6194;BME280;3130;41.564;23.280;2023-02-18T06:52:51;99864.59;;;5.22;71.88
6194;BME280;3130;41.564;23.280;2023-02-18T06:55:18;99866.97;;;5.31;72.28
6194;BME280;3130;41.564;23.280;2023-02-18T06:57:45;99867.06;;;5.26;71.27
6194;BME280;3130;41.564;23.280;2023-02-18T07:00:13;99813.75;;;4.89;71.76
6194;BME280;3130;41.564;23.280;2023-02-18T07:02:41;99864.47;;;5.28;71.58
6194;BME280;3130;41.564;23.280;2023-02-18T07:05:08;99840.00;;;5.24;70.82
6194;BME280;3130;41.564;23.280;2023-02-18T07:07:35;99859.22;;;5.35;70.30
6194;BME280;3130;41.564;23.280;2023-02-18T07:10:03;99857.16;;;5.49;70.21
6194;BME280;3130;41.564;23.280;2023-02-18T07:12:30;99851.66;;;5.66;70.17
6194;BME280;3130;41.564;23.280;2023-02-18T07:14:57;99849.44;;;5.87;69.53
6194;BME280;3130;41.564;23.280;2023-02-18T07:17:24;99853.97;;;6.06;68.83
6194;BME280;3130;41.564;23.280;2023-02-18T07:19:53;99862.91;;;6.21;67.56
6194;BME280;3130;41.564;23.280;2023-02-18T07:22:21;99861.00;;;6.29;67.17
6194;BME280;3130;41.564;23.280;2023-02-18T07:24:50;99864.81;;;6.43;66.29
6194;BME280;3130;41.564;23.280;2023-02-18T07:27:17;99736.09;;;6.04;65.93
6194;BME280;3130;41.564;23.280;2023-02-18T07:29:45;99858.94;;;7.25;64.26
6194;BME280;3130;41.564;23.280;2023-02-18T07:32:13;99851.38;;;7.48;62.69
6194;BME280;3130;41.564;23.280;2023-02-18T07:34:40;99858.19;;;7.97;61.68
6194;BME280;3130;41.564;23.280;2023-02-18T07:37:09;99859.16;;;8.65;60.19
6194;BME280;3130;41.564;23.280;2023-02-18T07:39:39;99850.59;;;9.72;57.09
6194;BME280;3130;41.564;23.280;2023-02-18T07:42:06;99802.75;;;10.12;52.19
6194;BME280;3130;41.564;23.280;2023-02-18T07:44:34;99842.91;;;10.50;50.90
6194;BME280;3130;41.564;23.280;2023-02-18T07:47:01;99840.75;;;10.59;50.51
6194;BME280;3130;41.564;23.280;2023-02-18T07:49:28;99844.59;;;10.86;49.46
6194;BME280;3130;41.564;23.280;2023-02-18T07:51:55;99841.88;;;11.07;48.07
6194;BME280;3130;41.564;23.280;2023-02-18T07:54:24;99755.66;;;10.68;47.61
6194;BME280;3130;41.564;23.280;2023-02-18T07:56:52;99840.69;;;11.14;46.46
6194;BME280;3130;41.564;23.280;2023-02-18T07:59:19;99850.81;;;10.99;46.79
6194;BME280;3130;41.564;23.280;2023-02-18T08:01:47;99832.13;;;10.97;47.71
6194;BME280;3130;41.564;23.280;2023-02-18T08:04:14;99849.47;;;11.27;47.44
6194;BME280;3130;41.564;23.280;2023-02-18T08:06:42;99840.72;;;11.48;46.76
6194;BME280;3130;41.564;23.280;2023-02-18T08:09:12;99843.31;;;11.82;46.44
6194;BME280;3130;41.564;23.280;2023-02-18T08:11:40;99777.44;;;11.64;45.68
6194;BME280;3130;41.564;23.280;2023-02-18T08:14:08;99844.38;;;12.27;44.75
6194;BME280;3130;41.564;23.280;2023-02-18T08:16:35;99847.03;;;12.74;44.75
6194;BME280;3130;41.564;23.280;2023-02-18T08:19:02;99839.16;;;13.23;43.45
6194;BME280;3130;41.564;23.280;2023-02-18T08:21:30;99841.28;;;13.30;41.99
6194;BME280;3130;41.564;23.280;2023-02-18T08:23:57;99715.72;;;12.60;42.08
6194;BME280;3130;41.564;23.280;2023-02-18T08:26:25;99760.91;;;12.79;42.47
6194;BME280;3130;41.564;23.280;2023-02-18T08:28:54;99802.94;;;12.95;42.08
6194;BME280;3130;41.564;23.280;2023-02-18T08:31:23;99816.72;;;13.25;41.98
6194;BME280;3130;41.564;23.280;2023-02-18T08:33:51;99827.09;;;13.53;41.92
6194;BME280;3130;41.564;23.280;2023-02-18T08:36:19;99786.63;;;13.55;41.88
6194;BME280;3130;41.564;23.280;2023-02-18T08:38:46;99774.50;;;13.71;40.56
6194;BME280;3130;41.564;23.280;2023-02-18T08:41:14;99808.97;;;13.54;41.82
6194;BME280;3130;41.564;23.280;2023-02-18T08:43:43;99794.06;;;13.01;43.35
6194;BME280;3130;41.564;23.280;2023-02-18T08:46:13;99810.31;;;12.86;44.13
6194;BME280;3130;41.564;23.280;2023-02-18T08:48:40;99778.59;;;12.23;45.73
6194;BME280;3130;41.564;23.280;2023-02-18T08:51:12;99809.03;;;12.15;47.00
6194;BME280;3130;41.564;23.280;2023-02-18T08:53:40;99698.41;;;11.52;47.75
6194;BME280;3130;41.564;23.280;2023-02-18T08:56:08;99699.47;;;11.48;48.04
6194;BME280;3130;41.564;23.280;2023-02-18T08:58:35;99800.75;;;12.26;47.63
6194;BME280;3130;41.564;23.280;2023-02-18T09:01:05;99731.66;;;11.72;47.49
6194;BME280;3130;41.564;23.280;2023-02-18T09:03:34;99800.66;;;12.27;47.22
6194;BME280;3130;41.564;23.280;2023-02-18T09:06:02;99809.53;;;12.22;46.56
6194;BME280;3130;41.564;23.280;2023-02-18T09:08:29;99805.84;;;12.10;47.06
6194;BME280;3130;41.564;23.280;2023-02-18T09:10:57;99804.03;;;12.12;47.51
6194;BME280;3130;41.564;23.280;2023-02-18T09:13:26;99806.31;;;12.18;47.19
6194;BME280;3130;41.564;23.280;2023-02-18T09:15:58;99789.56;;;12.27;46.85
6194;BME280;3130;41.564;23.280;2023-02-18T09:18:25;99802.28;;;12.61;46.43
6194;BME280;3130;41.564;23.280;2023-02-18T09:20:57;99795.38;;;12.77;45.73
6194;BME280;3130;41.564;23.280;2023-02-18T09:23:25;99771.81;;;12.69;45.59
6194;BME280;3130;41.564;23.280;2023-02-18T09:25:53;99780.34;;;12.54;46.19
6194;BME280;3130;41.564;23.280;2023-02-18T09:28:21;99700.91;;;11.86;45.08
6194;BME280;3130;41.564;23.280;2023-02-18T09:30:48;99788.00;;;12.40;45.28
6194;BME280;3130;41.564;23.280;2023-02-18T09:33:15;99785.50;;;12.38;44.15
6194;BME280;3130;41.564;23.280;2023-02-18T09:35:44;99785.09;;;12.46;43.19
6194;BME280;3130;41.564;23.280;2023-02-18T09:38:15;99772.56;;;12.55;41.51
6194;BME280;3130;41.564;23.280;2023-02-18T09:40:45;99784.50;;;12.72;40.20
6194;BME280;3130;41.564;23.280;2023-02-18T09:43:21;99675.88;;;11.74;39.72
6194;BME280;3130;41.564;23.280;2023-02-18T09:46:03;99627.94;;;11.41;40.39
6194;BME280;3130;41.564;23.280;2023-02-18T09:48:35;99633.31;;;11.53;40.60
6194;BME280;3130;41.564;23.280;2023-02-18T09:51:03;99756.97;;;12.43;39.79
6194;BME280;3130;41.564;23.280;2023-02-18T09:53:33;99745.25;;;12.53;39.99
6194;BME280;3130;41.564;23.280;2023-02-18T09:56:00;99765.59;;;12.73;40.12
6194;BME280;3130;41.564;23.280;2023-02-18T09:58:29;99765.09;;;12.82;40.20
6194;BME280;3130;41.564;23.280;2023-02-18T10:01:03;99761.00;;;12.93;39.53
6194;BME280;3130;41.564;23.280;2023-02-18T10:03:31;99759.75;;;13.00;39.25
6194;BME280;3130;41.564;23.280;2023-02-18T10:06:01;99755.72;;;13.25;38.92
6194;BME280;3130;41.564;23.280;2023-02-18T10:08:34;99698.84;;;13.14;38.24
6194;BME280;3130;41.564;23.280;2023-02-18T10:11:03;99754.22;;;13.65;37.53
6194;BME280;3130;41.564;23.280;2023-02-18T10:13:32;99752.59;;;13.92;35.78
6194;BME280;3130;41.564;23.280;2023-02-18T10:16:01;99746.06;;;14.14;35.36
6194;BME280;3130;41.564;23.280;2023-02-18T10:18:30;99741.25;;;14.36;35.13
6194;BME280;3130;41.564;23.280;2023-02-18T10:21:05;99732.81;;;14.60;34.67
6194;BME280;3130;41.564;23.280;2023-02-18T10:23:37;99725.31;;;14.70;34.48
6194;BME280;3130;41.564;23.280;2023-02-18T10:26:08;99672.34;;;14.50;34.32
6194;BME280;3130;41.564;23.280;2023-02-18T10:28:38;99704.59;;;14.84;33.75
6194;BME280;3130;41.564;23.280;2023-02-18T10:31:07;99703.91;;;14.94;33.43
6194;BME280;3130;41.564;23.280;2023-02-18T10:33:41;99635.25;;;14.65;33.01
6194;BME280;3130;41.564;23.280;2023-02-18T10:36:24;99574.38;;;14.49;33.20
6194;BME280;3130;41.564;23.280;2023-02-18T10:39:05;99667.22;;;14.89;32.69
6194;BME280;3130;41.564;23.280;2023-02-18T10:41:44;99680.47;;;14.97;32.83
6194;BME280;3130;41.564;23.280;2023-02-18T10:44:21;99683.59;;;15.14;32.93
6194;BME280;3130;41.564;23.280;2023-02-18T10:47:00;99660.50;;;14.87;32.34
6194;BME280;3130;41.564;23.280;2023-02-18T10:49:51;99672.53;;;15.00;32.39
6194;BME280;3130;41.564;23.280;2023-02-18T10:52:35;99614.00;;;14.74;32.73
6194;BME280;3130;41.564;23.280;2023-02-18T10:55:07;99665.91;;;15.21;32.41
6194;BME280;3130;41.564;23.280;2023-02-18T10:57:45;99661.72;;;15.32;31.83
6194;BME280;3130;41.564;23.280;2023-02-18T11:00:15;99612.59;;;15.08;32.16
6194;BME280;3130;41.564;23.280;2023-02-18T11:02:43;99657.81;;;15.52;32.17
6194;BME280;3130;41.564;23.280;2023-02-18T11:05:19;99645.09;;;15.36;32.65
6194;BME280;3130;41.564;23.280;2023-02-18T11:07:50;99591.09;;;15.07;32.76
6194;BME280;3130;41.564;23.280;2023-02-18T11:10:25;99647.34;;;15.53;33.59
6194;BME280;3130;41.564;23.280;2023-02-18T11:12:57;99595.66;;;15.41;33.23
6194;BME280;3130;41.564;23.280;2023-02-18T11:15:28;99632.59;;;15.91;33.00
6194;BME280;3130;41.564;23.280;2023-02-18T11:17:57;99571.31;;;15.68;32.39
6194;BME280;3130;41.564;23.280;2023-02-18T11:20:33;99616.41;;;16.00;33.02
6194;BME280;3130;41.564;23.280;2023-02-18T11:23:19;99574.63;;;15.94;31.53
6194;BME280;3130;41.564;23.280;2023-02-18T11:25:56;99592.91;;;16.26;31.98
6194;BME280;3130;41.564;23.280;2023-02-18T11:28:40;99567.97;;;16.25;31.35
6194;BME280;3130;41.564;23.280;2023-02-18T11:31:09;99585.66;;;16.55;31.46
6194;BME280;3130;41.564;23.280;2023-02-18T11:33:40;99594.22;;;16.79;31.05
6194;BME280;3130;41.564;23.280;2023-02-18T11:36:18;99591.19;;;16.96;31.04
6194;BME280;3130;41.564;23.280;2023-02-18T11:38:49;99563.91;;;17.03;30.46
6194;BME280;3130;41.564;23.280;2023-02-18T11:41:20;99582.66;;;17.28;30.48
6194;BME280;3130;41.564;23.280;2023-02-18T11:43:50;99582.09;;;17.46;30.06
6194;BME280;3130;41.564;23.280;2023-02-18T11:46:24;99503.44;;;17.02;30.00
6194;BME280;3130;41.564;23.280;2023-02-18T11:48:52;99580.06;;;17.50;29.83
6194;BME280;3130;41.564;23.280;2023-02-18T11:51:23;99527.50;;;17.26;29.31
6194;BME280;3130;41.564;23.280;2023-02-18T11:53:56;99566.88;;;17.53;29.80
6194;BME280;3130;41.564;23.280;2023-02-18T11:56:28;99563.25;;;17.33;30.02
6194;BME280;3130;41.564;23.280;2023-02-18T11:58:56;99559.91;;;17.42;30.26
6194;BME280;3130;41.564;23.280;2023-02-18T12:01:42;99553.69;;;17.45;30.00
6194;BME280;3130;41.564;23.280;2023-02-18T12:04:13;99537.91;;;17.48;30.24
6194;BME280;3130;41.564;23.280;2023-02-18T12:06:48;99428.78;;;16.96;30.26
6194;BME280;3130;41.564;23.280;2023-02-18T12:09:25;99536.00;;;17.61;30.18
6194;BME280;3130;41.564;23.280;2023-02-18T12:11:58;99540.09;;;17.63;30.09
6194;BME280;3130;41.564;23.280;2023-02-18T12:14:26;99543.41;;;17.65;30.14
6194;BME280;3130;41.564;23.280;2023-02-18T12:17:18;99425.63;;;17.04;29.75
6194;BME280;3130;41.564;23.280;2023-02-18T12:20:01;99477.63;;;17.22;29.77
6194;BME280;3130;41.564;23.280;2023-02-18T12:22:40;99529.84;;;17.62;29.75
6194;BME280;3130;41.564;23.280;2023-02-18T12:25:24;99531.28;;;17.55;29.97
6194;BME280;3130;41.564;23.280;2023-02-18T12:28:18;99515.38;;;17.48;30.29
6194;BME280;3130;41.564;23.280;2023-02-18T12:31:09;99452.00;;;16.98;29.59
6194;BME280;3130;41.564;23.280;2023-02-18T12:33:54;99481.09;;;16.90;30.04
6194;BME280;3130;41.564;23.280;2023-02-18T12:36:35;99506.88;;;17.14;30.13
6194;BME280;3130;41.564;23.280;2023-02-18T12:39:13;99458.56;;;16.91;30.15
6194;BME280;3130;41.564;23.280;2023-02-18T12:42:02;99502.03;;;17.20;29.59
6194;BME280;3130;41.564;23.280;2023-02-18T12:44:40;99399.84;;;16.58;29.86
6194;BME280;3130;41.564;23.280;2023-02-18T12:47:40;99400.41;;;16.73;30.12
6194;BME280;3130;41.564;23.280;2023-02-18T12:50:28;99451.88;;;17.10;29.76
6194;BME280;3130;41.564;23.280;2023-02-18T12:53:17;99495.91;;;17.54;29.78
6194;BME280;3130;41.564;23.280;2023-02-18T12:55:57;99487.16;;;17.66;29.73
6194;BME280;3130;41.564;23.280;2023-02-18T12:58:36;99488.50;;;17.92;29.35
6194;BME280;3130;41.564;23.280;2023-02-18T13:01:34;99457.56;;;18.00;28.79
6194;BME280;3130;41.564;23.280;2023-02-18T13:07:27;99474.09;;;18.50;26.80
6194;BME280;3130;41.564;23.280;2023-02-18T13:12:56;99397.31;;;18.37;26.63
6194;BME280;3130;41.564;23.280;2023-02-18T13:15:35;99444.97;;;18.77;25.59
6194;BME280;3130;41.564;23.280;2023-02-18T13:18:10;99454.41;;;18.78;24.91
6194;BME280;3130;41.564;23.280;2023-02-18T13:20:40;99466.75;;;18.85;24.95
6194;BME280;3130;41.564;23.280;2023-02-18T13:23:16;99463.06;;;18.88;25.31
6194;BME280;3130;41.564;23.280;2023-02-18T13:25:44;99328.16;;;18.16;25.48
6194;BME280;3130;41.564;23.280;2023-02-18T13:28:19;99454.47;;;18.87;25.25
6194;BME280;3130;41.564;23.280;2023-02-18T13:30:53;99452.41;;;18.91;25.61
6194;BME280;3130;41.564;23.280;2023-02-18T13:33:30;99400.75;;;18.67;25.75
6194;BME280;3130;41.564;23.280;2023-02-18T13:36:07;99430.00;;;18.99;25.52
6194;BME280;3130;41.564;23.280;2023-02-18T13:38:50;99447.88;;;19.13;25.39
6194;BME280;3130;41.564;23.280;2023-02-18T13:41:19;99385.59;;;18.82;25.75
6194;BME280;3130;41.564;23.280;2023-02-18T13:43:47;99432.44;;;19.21;25.70
6194;BME280;3130;41.564;23.280;2023-02-18T13:46:16;99425.84;;;19.17;26.06
6194;BME280;3130;41.564;23.280;2023-02-18T13:48:47;99439.56;;;19.28;27.61